Time;durP1;ratioP1;P1;durP2;ratioP2;P2;SDS_P1;SDS_P2;PMS_P1;PMS_P2;Temp;Humidity;BMP_temperature;BMP_pressure;BME280_temperature;BME280_humidity;BME280_pressure;Samples;Min_cycle;Max_cycle;Signal;HPM_P1;HPM_P2
2022/04/14 00:01:48;;;;;;;9.13;4.03;;;;;;;13.50;74.52;100885.03;5038225;28;20080;-67
2022/04/14 00:04:52;;;;;;;11.23;5.32;;;;;;;13.56;73.99;100879.44;5037102;28;20048;-67
2022/04/14 00:07:55;;;;;;;11.13;4.82;;;;;;;13.56;73.55;100870.66;5038364;28;20140;-67
2022/04/14 00:10:59;;;;;;;12.60;3.95;;;;;;;13.42;74.04;100879.38;5038241;28;20512;-68
2022/04/14 00:14:02;;;;;;;8.48;4.10;;;;;;;13.46;73.76;100880.88;5038470;28;20057;-67
2022/04/14 00:17:05;;;;;;;;;;;;;;;13.57;73.45;100880.25;5038636;28;20175;-67
2022/04/14 00:20:10;;;;;;;5.43;3.67;;;;;;;13.52;73.63;100885.78;5038347;28;20278;-67
2022/04/14 00:23:13;;;;;;;7.80;4.45;;;;;;;13.57;73.57;100891.63;5038455;28;20511;-67
2022/04/14 00:26:16;;;;;;;8.95;4.00;;;;;;;13.30;74.59;100894.06;5038413;28;20040;-67
2022/04/14 00:29:20;;;;;;;11.85;4.63;;;;;;;13.41;73.93;100888.19;5038452;28;20503;-68
2022/04/14 00:32:23;;;;;;;9.80;4.30;;;;;;;13.43;73.88;100883.69;5038157;28;20550;-67
2022/04/14 00:35:27;;;;;;;9.75;4.90;;;;;;;13.38;74.38;100891.00;5037187;28;20495;-67
2022/04/14 00:38:30;;;;;;;12.13;4.35;;;;;;;13.24;74.21;100900.53;5037626;28;20086;-67
2022/04/14 00:41:34;;;;;;;10.18;4.38;;;;;;;12.98;75.72;100903.72;5036857;28;20518;-67
2022/04/14 00:44:38;;;;;;;12.38;5.57;;;;;;;13.13;75.00;100892.38;5037321;28;20102;-67
2022/04/14 00:47:42;;;;;;;9.50;4.38;;;;;;;13.06;74.95;100896.28;5037745;28;20095;-68
2022/04/14 00:50:45;;;;;;;12.05;5.05;;;;;;;13.08;74.96;100896.19;5038532;28;20040;-67
2022/04/14 00:53:48;;;;;;;10.23;4.68;;;;;;;13.01;74.90;100898.31;5038243;28;20091;-67
2022/04/14 00:56:51;;;;;;;8.85;5.10;;;;;;;13.00;74.83;100907.13;5037808;28;20044;-68
2022/04/14 00:59:55;;;;;;;9.95;5.93;;;;;;;12.78;76.16;100905.69;5038155;28;20106;-67
2022/04/14 01:02:58;;;;;;;12.50;5.20;;;;;;;13.08;74.86;100907.56;5036448;28;20113;-67
2022/04/14 01:06:03;;;;;;;11.20;6.10;;;;;;;12.98;75.19;100908.97;5035337;28;20432;-67
2022/04/14 01:09:18;;;;;;;12.85;6.70;;;;;;;13.13;74.62;100902.88;5033017;28;20052;-68
2022/04/14 01:12:23;;;;;;;10.68;5.07;;;;;;;13.08;74.53;100909.31;5034778;28;20136;-67
2022/04/14 01:15:26;;;;;;;15.88;5.22;;;;;;;13.10;74.12;100908.28;5044445;28;20052;-67
2022/04/14 01:18:30;;;;;;;11.70;5.90;;;;;;;13.03;74.59;100915.69;5035123;28;20044;-67
2022/04/14 01:21:34;;;;;;;10.73;6.53;;;;;;;12.53;78.02;100916.69;5035019;28;20044;-67
2022/04/14 01:24:38;;;;;;;13.00;5.80;;;;;;;12.68;76.56;100919.41;5034561;28;20056;-67
2022/04/14 01:27:42;;;;;;;9.73;5.93;;;;;;;12.80;76.07;100911.72;5033987;28;20099;-68
2022/04/14 01:30:45;;;;;;;7.18;5.20;;;;;;;12.71;76.90;100911.38;5034111;28;20155;-67
2022/04/14 01:33:49;;;;;;;9.88;5.80;;;;;;;12.84;75.70;100912.38;5032639;28;20499;-67
2022/04/14 01:36:52;;;;;;;7.40;4.78;;;;;;;12.96;75.48;100914.34;5032853;28;20119;-67
2022/04/14 01:39:55;;;;;;;14.35;5.63;;;;;;;12.99;75.38;100923.81;5034110;28;20068;-67
2022/04/14 01:42:58;;;;;;;13.75;5.78;;;;;;;12.86;75.55;100930.66;5034267;28;20103;-67
2022/04/14 01:46:05;;;;;;;7.95;4.70;;;;;;;12.70;76.85;100930.66;5034182;28;20047;-67
2022/04/14 01:49:09;;;;;;;9.02;5.30;;;;;;;12.70;76.49;100931.53;5034091;28;20048;-67
2022/04/14 01:52:12;;;;;;;7.78;5.15;;;;;;;12.83;75.97;100936.06;5033084;28;20079;-67
2022/04/14 01:55:15;;;;;;;;;;;;;;;12.87;75.81;100938.47;5033374;28;20417;-67
2022/04/14 01:58:19;;;;;;;9.27;5.15;;;;;;;12.83;75.72;100936.06;5032990;28;19940;-67
2022/04/14 02:01:23;;;;;;;10.25;5.13;;;;;;;12.81;75.93;100933.56;5031507;28;20107;-67
2022/04/14 02:04:27;;;;;;;15.40;5.75;;;;;;;12.78;76.20;100938.97;5033999;28;20044;-67
2022/04/14 02:07:30;;;;;;;14.93;6.00;;;;;;;12.54;76.98;100946.41;5032975;28;20052;-67
2022/04/14 02:10:33;;;;;;;13.05;5.47;;;;;;;12.58;76.91;100950.56;5033413;28;20067;-67
2022/04/14 02:13:38;;;;;;;9.35;5.25;;;;;;;12.72;76.29;100952.41;5032695;28;20052;-67
2022/04/14 02:16:41;;;;;;;8.02;4.70;;;;;;;12.57;76.98;100947.09;5030740;28;20415;-67
2022/04/14 02:19:45;;;;;;;9.25;5.40;;;;;;;12.75;76.20;100954.88;5033958;28;20048;-67
2022/04/14 02:22:48;;;;;;;9.77;5.25;;;;;;;12.64;75.92;100947.59;5034032;28;20531;-68
2022/04/14 02:25:52;;;;;;;8.25;4.88;;;;;;;12.80;75.63;100948.44;5033324;28;20067;-67
2022/04/14 02:28:55;;;;;;;13.35;5.43;;;;;;;12.78;75.50;100952.94;5032716;28;20052;-67
2022/04/14 02:32:00;;;;;;;9.07;4.57;;;;;;;12.76;75.73;100946.94;5033191;28;20091;-67
2022/04/14 02:35:04;;;;;;;10.68;6.28;;;;;;;12.90;75.29;100953.19;5032953;28;20569;-67
2022/04/14 02:38:07;;;;;;;14.52;6.15;;;;;;;12.90;74.95;100942.72;5031990;28;20052;-68
2022/04/14 02:41:11;;;;;;;12.50;5.95;;;;;;;12.65;75.75;100949.28;5032825;28;20048;-67
2022/04/14 02:44:14;;;;;;;12.20;5.50;;;;;;;12.48;76.95;100949.34;5033042;28;20040;-67
2022/04/14 02:47:17;;;;;;;9.30;5.70;;;;;;;12.57;76.56;100956.72;5033330;28;20056;-67
2022/04/14 02:50:21;;;;;;;12.65;6.18;;;;;;;12.52;76.81;100956.97;5032194;28;20079;-67
2022/04/14 02:53:26;;;;;;;10.20;5.50;;;;;;;12.57;76.48;100960.19;5032349;28;20056;-67
2022/04/14 02:56:29;;;;;;;9.40;5.05;;;;;;;12.45;76.89;100962.63;5032395;28;20068;-67
2022/04/14 02:59:33;;;;;;;7.82;5.47;;;;;;;12.47;76.81;100960.75;5032859;28;20435;-67
2022/04/14 03:02:38;;;;;;;8.75;4.70;;;;;;;12.31;77.48;100958.09;5031683;28;20266;-67
2022/04/14 03:05:41;;;;;;;12.25;5.63;;;;;;;12.21;77.75;100964.75;5032879;28;20415;-67
2022/04/14 03:08:44;;;;;;;;;;;;;;;12.23;78.06;100963.75;5031592;28;20052;-67
2022/04/14 03:11:48;;;;;;;;;;;;;;;12.41;77.03;100964.56;5031260;28;20361;-67
2022/04/14 03:14:51;;;;;;;13.95;5.97;;;;;;;12.22;77.61;100969.94;5030834;28;19966;-67
2022/04/14 03:17:54;;;;;;;12.13;5.63;;;;;;;12.31;77.44;100966.81;5032798;28;20525;-67
2022/04/14 03:20:57;;;;;;;14.60;7.07;;;;;;;12.39;76.91;100962.97;5032607;28;20053;-67
2022/04/14 03:24:01;;;;;;;10.02;6.43;;;;;;;12.15;77.61;100965.06;5031969;28;20183;-67
2022/04/14 03:27:04;;;;;;;13.77;6.78;;;;;;;12.12;77.90;100966.06;5032180;28;20139;-67
2022/04/14 03:30:10;;;;;;;13.32;7.25;;;;;;;12.09;78.15;100974.97;5032317;28;20513;-67
2022/04/14 03:33:13;;;;;;;13.05;8.10;;;;;;;12.23;77.82;100968.16;5032562;28;20068;-67
2022/04/14 03:36:16;;;;;;;15.07;9.85;;;;;;;12.31;77.80;100973.81;5032496;28;20107;-67
2022/04/14 03:39:20;;;;;;;13.93;9.27;;;;;;;12.32;78.00;100968.53;5032324;28;20045;-67
2022/04/14 03:42:23;;;;;;;13.88;9.63;;;;;;;12.23;78.78;100974.25;5032374;28;20132;-67
2022/04/14 03:45:27;;;;;;;11.95;8.15;;;;;;;12.29;77.30;100971.31;5032712;28;20053;-67
2022/04/14 03:48:30;;;;;;;11.50;6.70;;;;;;;12.05;77.59;100969.94;5032317;28;20052;-68
2022/04/14 03:51:34;;;;;;;13.50;6.47;;;;;;;11.90;78.09;100975.94;5030261;28;20048;-67
2022/04/14 03:54:37;;;;;;;11.35;5.55;;;;;;;11.62;78.59;100982.56;5030841;28;20050;-67
2022/04/14 03:57:40;;;;;;;;;;;;;;;11.79;77.78;100977.31;5032256;28;20044;-67
2022/04/14 04:00:44;;;;;;;13.15;5.10;;;;;;;11.61;78.74;100986.09;5031447;28;20372;-67
2022/04/14 04:03:48;;;;;;;11.88;6.38;;;;;;;11.68;78.28;100987.50;5031758;28;20125;-67
2022/04/14 04:06:51;;;;;;;9.32;5.57;;;;;;;11.73;78.28;100987.25;5032156;28;20142;-67
2022/04/14 04:09:54;;;;;;;;;;;;;;;11.80;78.12;100991.25;5031247;28;20140;-67
2022/04/14 04:12:57;;;;;;;8.13;5.80;;;;;;;11.64;78.82;100988.56;5031732;28;19923;-67
2022/04/14 04:16:00;;;;;;;11.15;5.80;;;;;;;11.70;78.81;100995.25;5031953;28;20141;-67
2022/04/14 04:19:03;;;;;;;;;;;;;;;11.46;80.07;100989.47;5032315;28;20467;-67
2022/04/14 04:22:06;;;;;;;8.30;6.70;;;;;;;11.56;80.22;101003.81;5031967;28;20012;-68
2022/04/14 04:25:12;;;;;;;8.52;6.13;;;;;;;11.76;79.37;101002.81;5028045;28;20184;-67
2022/04/14 04:28:17;;;;;;;9.30;6.93;;;;;;;11.90;78.80;101003.03;5027776;28;20099;-67
2022/04/14 04:31:22;;;;;;;13.90;7.75;;;;;;;12.01;78.41;101002.47;5038345;28;20142;-67
2022/04/14 04:34:28;;;;;;;19.08;7.28;;;;;;;12.09;78.25;101005.53;5036419;28;20114;-67
2022/04/14 04:37:31;;;;;;;;;;;;;;;12.02;78.27;101009.41;5027355;28;20048;-68
2022/04/14 04:40:34;;;;;;;8.77;6.18;;;;;;;11.76;78.81;101014.16;5028478;28;20267;-68
2022/04/14 04:43:38;;;;;;;7.00;5.00;;;;;;;11.64;79.30;101007.72;5030058;28;20052;-67
2022/04/14 04:46:41;;;;;;;11.55;6.45;;;;;;;11.62;79.47;101011.38;5031766;28;20044;-67
2022/04/14 04:49:44;;;;;;;12.35;6.32;;;;;;;11.51;79.81;101011.03;5023204;28;20147;-67
2022/04/14 04:52:47;;;;;;;10.20;5.75;;;;;;;11.53;79.84;101014.44;5011959;28;20103;-68
2022/04/14 04:55:51;;;;;;;11.48;5.65;;;;;;;11.58;79.63;101022.91;5012278;28;20451;-67
2022/04/14 04:58:54;;;;;;;9.15;4.90;;;;;;;11.60;79.21;101021.91;5010541;28;20108;-67
2022/04/14 05:01:57;;;;;;;8.23;5.75;;;;;;;11.52;79.84;101020.56;5026094;28;20459;-67
2022/04/14 05:05:01;;;;;;;8.32;5.53;;;;;;;11.47;80.07;101026.03;5030640;28;20088;-68
2022/04/14 05:08:06;;;;;;;9.10;5.72;;;;;;;11.50;80.07;101025.91;5029631;28;20045;-68
2022/04/14 05:11:09;;;;;;;10.38;4.82;;;;;;;11.57;79.96;101035.16;5030482;28;20064;-68
2022/04/14 05:14:13;;;;;;;12.15;6.75;;;;;;;11.57;79.88;101040.38;5028075;28;20095;-68
2022/04/14 05:17:18;;;;;;;11.18;5.70;;;;;;;11.70;79.24;101042.41;5026149;28;20401;-68
2022/04/14 05:20:21;;;;;;;11.57;6.00;;;;;;;11.71;79.37;101044.97;5010531;28;20147;-67
2022/04/14 05:23:24;;;;;;;10.88;5.53;;;;;;;11.81;78.66;101035.75;5010950;28;20096;-67
2022/04/14 05:26:27;;;;;;;10.80;6.18;;;;;;;11.71;79.51;101042.34;5021507;28;20053;-67
2022/04/14 05:29:31;;;;;;;11.90;5.88;;;;;;;11.71;79.78;101041.50;5023172;28;20056;-67
2022/04/14 05:32:37;;;;;;;9.27;5.72;;;;;;;11.66;80.03;101046.97;5029284;28;20048;-68
2022/04/14 05:35:43;;;;;;;9.68;5.78;;;;;;;11.78;79.67;101049.00;5029270;28;20408;-68
2022/04/14 05:38:46;;;;;;;16.35;7.35;;;;;;;11.87;79.13;101052.97;5029893;28;20087;-67
2022/04/14 05:41:50;;;;;;;9.23;6.18;;;;;;;11.90;79.34;101062.44;5029528;28;20565;-67
2022/04/14 05:44:53;;;;;;;14.68;7.05;;;;;;;11.96;79.21;101056.88;5010629;28;20138;-68
2022/04/14 05:47:57;;;;;;;10.55;6.38;;;;;;;12.06;78.59;101055.50;5010602;28;20092;-68
2022/04/14 05:51:00;;;;;;;11.70;7.03;;;;;;;12.07;79.17;101041.50;5020461;28;20040;-68
2022/04/14 05:54:04;;;;;;;15.48;6.78;;;;;;;12.05;79.45;101045.94;5029457;28;20068;-67
2022/04/14 05:57:07;;;;;;;11.88;6.78;;;;;;;12.04;79.66;101057.38;5029155;28;20124;-68
2022/04/14 06:00:13;;;;;;;10.77;6.90;;;;;;;12.00;79.93;101050.59;5027167;28;20515;-67
2022/04/14 06:03:17;;;;;;;12.60;6.72;;;;;;;12.00;80.22;101055.84;5026877;28;20099;-67
2022/04/14 06:06:20;;;;;;;13.05;8.18;;;;;;;12.21;79.35;101054.72;5022049;28;20044;-67
2022/04/14 06:09:25;;;;;;;14.32;11.43;;;;;;;12.30;78.99;101064.75;5023767;28;20417;-68
2022/04/14 06:12:29;;;;;;;10.98;7.82;;;;;;;12.27;79.36;101059.66;5029301;28;20048;-68
2022/04/14 06:15:32;;;;;;;12.85;7.53;;;;;;;11.78;81.42;101064.72;5028896;28;20108;-68
2022/04/14 06:18:35;;;;;;;14.48;8.82;;;;;;;11.64;82.82;101073.22;5029717;28;20051;-67
2022/04/14 06:21:38;;;;;;;16.20;7.30;;;;;;;11.95;81.58;101077.00;5029811;28;20059;-67
2022/04/14 06:24:42;;;;;;;12.65;9.15;;;;;;;12.10;80.83;101072.78;5014940;28;20053;-67
2022/04/14 06:27:46;;;;;;;12.48;7.97;;;;;;;12.17;80.59;101062.84;5008196;28;20049;-67
2022/04/14 06:30:51;;;;;;;11.85;7.43;;;;;;;12.29;80.23;101068.31;5026372;28;20048;-68
2022/04/14 06:33:54;;;;;;;13.10;7.78;;;;;;;12.49;79.41;101079.56;5028389;28;20095;-68
2022/04/14 06:36:58;;;;;;;15.07;7.47;;;;;;;12.46;79.32;101082.34;5028230;28;20111;-67
2022/04/14 06:40:03;;;;;;;11.35;7.55;;;;;;;12.65;78.45;101069.13;5016018;28;20544;-67
2022/04/14 06:43:07;;;;;;;14.13;9.43;;;;;;;12.65;78.40;101074.38;5029935;28;20880;-67
2022/04/14 06:46:10;;;;;;;17.17;9.18;;;;;;;12.55;79.53;101074.84;5016623;28;20176;-67
2022/04/14 06:49:13;;;;;;;16.63;9.20;;;;;;;12.52;79.24;101082.03;5027649;28;20099;-67
2022/04/14 06:52:17;;;;;;;15.68;10.40;;;;;;;12.65;78.75;101075.22;5028118;28;20091;-68
2022/04/14 06:55:21;;;;;;;15.30;10.95;;;;;;;12.80;78.18;101084.91;5028285;28;20558;-68
2022/04/14 06:58:24;;;;;;;15.40;8.90;;;;;;;12.66;79.71;101086.56;5027574;28;20048;-68
2022/04/14 07:01:27;;;;;;;12.40;8.07;;;;;;;12.64;79.92;101085.81;5028449;28;20047;-67
2022/04/14 07:04:31;;;;;;;14.43;9.30;;;;;;;12.66;79.68;101086.56;5026158;28;20053;-67
2022/04/14 07:07:34;;;;;;;16.27;10.00;;;;;;;12.73;79.15;101093.16;5029227;28;20047;-68
2022/04/14 07:10:38;;;;;;;18.58;10.15;;;;;;;12.92;78.43;101090.44;5025756;28;20051;-67
2022/04/14 07:13:41;;;;;;;16.40;9.98;;;;;;;13.08;77.38;101093.97;5008266;28;20108;-67
2022/04/14 07:16:44;;;;;;;14.20;9.38;;;;;;;13.06;77.74;101092.34;5001777;28;20125;-67
2022/04/14 07:19:48;;;;;;;17.92;10.38;;;;;;;13.05;77.84;101088.88;5029938;28;20044;-67
2022/04/14 07:22:52;;;;;;;13.20;9.55;;;;;;;13.02;78.25;101094.28;5021135;28;20059;-67
2022/04/14 07:25:55;;;;;;;15.27;10.60;;;;;;;12.97;78.48;101091.03;5011486;28;20048;-67
2022/04/14 07:28:58;;;;;;;14.38;9.00;;;;;;;12.92;78.77;101088.69;5011725;28;20049;-67
2022/04/14 07:32:02;;;;;;;16.38;9.48;;;;;;;12.97;78.24;101091.03;5012603;28;20076;-67
2022/04/14 07:35:06;;;;;;;13.90;8.45;;;;;;;12.93;78.57;101094.78;5012740;28;20044;-67
2022/04/14 07:38:10;;;;;;;13.25;8.32;;;;;;;13.03;78.41;101095.97;5012704;28;20405;-67
2022/04/14 07:41:13;;;;;;;16.05;8.38;;;;;;;13.17;77.66;101111.81;5012798;28;20500;-67
2022/04/14 07:44:17;;;;;;;12.98;7.75;;;;;;;13.04;78.27;101106.38;5012164;28;20512;-68
2022/04/14 07:47:20;;;;;;;14.45;8.50;;;;;;;13.02;79.04;101117.91;5012578;28;20052;-67
2022/04/14 07:50:24;;;;;;;17.13;7.82;;;;;;;13.16;78.16;101117.16;5012713;28;20041;-67
2022/04/14 07:53:28;;;;;;;18.13;8.93;;;;;;;13.29;77.28;101120.00;5012528;28;20121;-67
2022/04/14 07:56:31;;;;;;;16.67;9.95;;;;;;;13.36;76.96;101119.59;5000529;28;20141;-67
2022/04/14 07:59:34;;;;;;;;;;;;;;;13.64;76.26;101123.34;5012714;28;20466;-68
2022/04/14 08:02:54;;;;;;;13.10;9.98;;;;;;;13.73;76.08;101128.09;5012183;28;20012;-67
2022/04/14 08:05:57;;;;;;;17.65;9.57;;;;;;;13.75;76.07;101127.97;4999269;28;20107;-67
2022/04/14 08:09:04;;;;;;;12.75;8.70;;;;;;;13.89;75.86;101133.31;5012158;28;20076;-67
2022/04/14 08:12:08;;;;;;;11.20;7.75;;;;;;;13.99;75.25;101133.66;4999966;28;20147;-67
2022/04/14 08:15:12;;;;;;;12.95;8.18;;;;;;;13.92;75.56;101133.16;5013701;28;20045;-67
2022/04/14 08:18:15;;;;;;;14.52;9.65;;;;;;;13.66;75.57;101135.47;5004368;28;20385;-67
2022/04/14 08:21:20;;;;;;;12.48;10.35;;;;;;;13.79;75.13;101140.03;5023750;28;20140;-67
2022/04/14 08:24:24;;;;;;;15.25;10.27;;;;;;;13.81;74.70;101143.41;5011095;28;20048;-67
2022/04/14 08:27:27;;;;;;;14.95;11.57;;;;;;;14.00;73.49;101137.97;5011618;28;20430;-67
2022/04/14 08:30:32;;;;;;;15.93;10.57;;;;;;;14.20;72.65;101137.69;5030006;28;20080;-67
2022/04/14 08:33:37;;;;;;;16.55;10.43;;;;;;;14.28;71.73;101140.72;5030734;28;20506;-67
2022/04/14 08:36:40;;;;;;;19.45;11.25;;;;;;;14.17;71.89;101143.97;5029709;28;20044;-67
2022/04/14 08:39:44;;;;;;;18.15;10.68;;;;;;;14.00;72.70;101145.84;5030073;28;20232;-68
2022/04/14 08:43:00;;;;;;;14.00;9.90;;;;;;;14.06;72.16;101151.63;5030261;28;20044;-68
2022/04/14 08:46:06;;;;;;;13.73;10.73;;;;;;;14.21;71.91;101143.78;5030023;28;20048;-67
2022/04/14 08:49:11;;;;;;;15.18;10.20;;;;;;;14.31;71.80;101140.53;5030881;28;20091;-67
2022/04/14 08:52:15;;;;;;;12.35;9.02;;;;;;;14.37;71.44;101134.91;5030286;28;20118;-68
2022/04/14 08:55:19;;;;;;;13.13;8.70;;;;;;;14.33;70.98;101132.56;5010959;28;20048;-68
2022/04/14 08:58:26;;;;;;;12.65;9.05;;;;;;;14.72;70.00;101139.06;5011458;28;20507;-67
2022/04/14 09:01:31;;;;;;;11.52;8.52;;;;;;;14.75;69.70;101136.25;5011128;28;20099;-67
2022/04/14 09:04:38;;;;;;;11.40;7.85;;;;;;;14.95;68.94;101135.88;5013250;28;20044;-67
2022/04/14 09:07:42;;;;;;;13.18;8.48;;;;;;;14.67;69.30;101135.84;5016440;28;20183;-68
2022/04/14 09:10:45;;;;;;;12.90;8.75;;;;;;;14.76;69.12;101144.06;5030447;28;20258;-67
2022/04/14 09:13:48;;;;;;;10.80;7.95;;;;;;;14.85;68.57;101140.03;5029318;28;20048;-67
2022/04/14 09:16:52;;;;;;;14.63;7.13;;;;;;;14.96;68.09;101136.72;5031990;28;20053;-68
2022/04/14 09:19:55;;;;;;;10.05;6.82;;;;;;;14.94;68.80;101130.72;5031508;28;20123;-68
2022/04/14 09:23:10;;;;;;;11.63;6.97;;;;;;;15.09;67.78;101137.66;5031643;28;20060;-67
2022/04/14 09:26:14;;;;;;;10.80;6.97;;;;;;;14.81;68.43;101141.16;5030051;28;20458;-68
2022/04/14 09:29:18;;;;;;;12.60;5.97;;;;;;;15.00;67.28;101141.75;5031583;28;20408;-68
2022/04/14 09:32:33;;;;;;;8.95;5.60;;;;;;;15.32;65.16;101138.91;5030865;28;20583;-67
2022/04/14 09:35:36;;;;;;;11.80;5.18;;;;;;;15.44;63.95;101140.75;5032230;28;20052;-67
2022/04/14 09:39:05;;;;;;;7.72;5.13;;;;;;;15.67;62.82;101141.16;5032133;28;20053;-68
2022/04/14 09:42:13;;;;;;;6.88;4.13;;;;;;;15.77;62.20;101135.19;5009647;28;20056;-68
2022/04/14 09:45:28;;;;;;;12.50;4.30;;;;;;;15.71;62.51;101132.09;5008350;28;20084;-68
2022/04/14 09:48:32;;;;;;;8.57;4.95;;;;;;;15.99;63.27;101136.44;5010527;28;20068;-74
2022/04/14 09:51:39;;;;;;;11.35;5.43;;;;;;;16.14;64.38;101131.91;5009694;28;20092;-68
2022/04/14 09:54:45;;;;;;;10.68;5.60;;;;;;;16.27;63.48;101140.72;5027861;28;20220;-69
2022/04/14 09:58:09;;;;;;;18.15;6.15;;;;;;;16.51;62.25;101141.72;5029227;28;20083;-69
2022/04/14 10:01:18;;;;;;;7.35;4.82;;;;;;;16.58;61.19;101138.66;5030296;28;20052;-68
2022/04/14 10:04:29;;;;;;;10.23;5.07;;;;;;;16.58;61.82;101136.03;5013135;28;20595;-71
2022/04/14 10:07:32;;;;;;;8.75;5.80;;;;;;;16.41;61.91;101124.81;5028559;28;20052;-71
2022/04/14 10:10:38;;;;;;;9.02;5.68;;;;;;;16.39;60.54;101134.63;5029391;28;20088;-68
2022/04/14 10:13:41;;;;;;;8.57;6.00;;;;;;;16.08;61.37;101140.22;5028860;28;20136;-67
2022/04/14 10:16:46;;;;;;;9.43;5.68;;;;;;;15.98;61.95;101143.47;5029326;28;20068;-67
2022/04/14 10:19:51;;;;;;;7.60;5.70;;;;;;;15.77;61.62;101135.19;5028707;28;20151;-68
2022/04/14 10:22:55;;;;;;;9.07;6.50;;;;;;;15.55;62.27;101132.19;5029690;28;20040;-68
2022/04/14 10:25:59;;;;;;;12.98;6.00;;;;;;;15.84;62.92;101140.06;5029623;28;20049;-68
2022/04/14 10:29:06;;;;;;;11.43;6.25;;;;;;;15.56;63.87;101147.88;5029854;28;20103;-68
2022/04/14 10:32:11;;;;;;;8.88;5.82;;;;;;;15.73;64.22;101143.34;5027994;28;20077;-67
2022/04/14 10:35:18;;;;;;;9.05;5.00;;;;;;;16.01;62.72;101142.44;5017050;28;20115;-67
2022/04/14 10:38:40;;;;;;;8.05;5.78;;;;;;;15.68;63.34;101146.31;5027970;28;20140;-67
2022/04/14 10:41:49;;;;;;;8.30;4.97;;;;;;;15.56;64.00;101155.78;5017468;28;20106;-67
2022/04/14 10:44:55;;;;;;;8.75;5.05;;;;;;;15.51;62.87;101151.78;5028426;28;20044;-67
2022/04/14 10:48:00;;;;;;;6.88;3.92;;;;;;;15.60;63.53;101145.91;5039355;28;20049;-67
2022/04/14 10:51:29;;;;;;;9.50;4.15;;;;;;;15.57;62.58;101143.47;5017126;28;20044;-67
2022/04/14 10:54:58;;;;;;;8.07;3.40;;;;;;;15.58;61.59;101140.75;5027918;28;20057;-67
2022/04/14 10:58:03;;;;;;;9.25;3.25;;;;;;;15.75;60.89;101141.47;5028489;28;20095;-70
2022/04/14 11:01:11;;;;;;;7.72;2.90;;;;;;;15.95;59.92;101133.16;5029384;28;20084;-70
2022/04/14 11:04:25;;;;;;;7.20;3.00;;;;;;;16.19;60.46;101130.69;5029343;28;20060;-70
2022/04/14 11:07:29;;;;;;;4.55;2.00;;;;;;;16.19;60.16;101127.19;5029290;28;20059;-70
2022/04/14 11:10:33;;;;;;;6.13;1.30;;;;;;;16.03;56.79;101130.00;5028027;28;20127;-68
2022/04/14 11:13:55;;;;;;;3.72;1.10;;;;;;;16.36;57.28;101139.25;5028642;28;20432;-68
2022/04/14 11:16:59;;;;;;;5.05;1.15;;;;;;;16.43;55.35;101143.16;5030506;28;20553;-69
2022/04/14 11:20:35;;;;;;;8.43;1.40;;;;;;;16.33;55.57;101148.22;5031257;28;20068;-68
2022/04/14 11:23:40;;;;;;;2.47;1.05;;;;;;;16.39;53.35;101131.97;5031423;28;20040;-68
2022/04/14 11:26:45;;;;;;;5.72;1.40;;;;;;;16.71;53.30;101129.81;5032725;28;20475;-68
2022/04/14 11:29:57;;;;;;;2.67;0.82;;;;;;;16.66;54.50;101133.72;5032446;28;20111;-68
2022/04/14 11:33:14;;;;;;;4.28;1.23;;;;;;;16.59;54.50;101127.16;5032659;28;20084;-68
2022/04/14 11:36:25;;;;;;;3.15;1.10;;;;;;;16.69;53.13;101128.25;5032411;28;20152;-68
2022/04/14 11:39:29;;;;;;;5.85;1.13;;;;;;;16.96;53.23;101123.72;5019988;28;20076;-68
2022/04/14 11:42:33;;;;;;;5.70;1.42;;;;;;;17.08;53.12;101119.38;5032643;28;20063;-68
2022/04/14 11:45:37;;;;;;;4.45;1.95;;;;;;;16.60;53.29;101124.41;5032472;28;20511;-68
2022/04/14 11:48:42;;;;;;;3.13;1.92;;;;;;;16.34;54.31;101109.50;5032410;28;20423;-67
2022/04/14 11:51:48;;;;;;;4.38;1.95;;;;;;;16.49;54.61;101113.72;5032400;28;20556;-67
2022/04/14 11:54:53;;;;;;;4.88;1.95;;;;;;;16.53;55.21;101104.69;5032214;28;20082;-67
2022/04/14 11:57:57;;;;;;;4.82;1.45;;;;;;;16.84;53.89;101095.50;5032356;28;20044;-67
2022/04/14 12:01:06;;;;;;;7.28;2.25;;;;;;;16.93;53.65;101094.88;5031430;28;20052;-67
2022/04/14 12:04:10;;;;;;;6.68;2.08;;;;;;;17.08;53.27;101098.25;5031059;28;20095;-67
2022/04/14 12:07:14;;;;;;;6.88;2.67;;;;;;;17.16;52.46;101092.41;5031938;28;20403;-67
2022/04/14 12:10:17;;;;;;;4.88;1.50;;;;;;;17.62;52.25;101081.19;5031956;28;20515;-67
2022/04/14 12:13:23;;;;;;;7.53;2.03;;;;;;;17.72;52.68;101086.63;5031403;28;20065;-68
2022/04/14 12:16:33;;;;;;;4.57;1.83;;;;;;;17.89;50.81;101084.44;5031696;28;20052;-67
2022/04/14 12:19:47;;;;;;;5.50;1.80;;;;;;;18.05;50.25;101081.50;5032700;28;20052;-68
2022/04/14 12:22:51;;;;;;;6.25;2.00;;;;;;;18.00;51.12;101081.03;5030496;28;20262;-67
2022/04/14 12:26:04;;;;;;;7.00;1.55;;;;;;;18.04;50.24;101084.28;5032184;28;20037;-68
2022/04/14 12:29:10;;;;;;;6.78;1.50;;;;;;;18.23;50.96;101087.22;5021491;28;20057;-68
2022/04/14 12:32:17;;;;;;;3.40;1.20;;;;;;;18.57;49.61;101074.91;5026792;28;20060;-68
2022/04/14 12:35:39;;;;;;;4.47;1.27;;;;;;;19.02;48.60;101074.13;5027259;28;20052;-68
2022/04/14 12:38:49;;;;;;;5.13;1.20;;;;;;;19.12;47.18;101064.47;5026580;28;20055;-68
2022/04/14 12:41:54;;;;;;;3.55;1.40;;;;;;;19.59;46.98;101062.47;5027143;28;20051;-68
2022/04/14 12:45:04;;;;;;;7.45;1.60;;;;;;;19.91;45.82;101051.00;5026760;28;20496;-68
2022/04/14 12:48:07;;;;;;;3.28;1.33;;;;;;;19.87;45.42;101045.09;5026183;28;20061;-68
2022/04/14 12:51:11;;;;;;;7.63;1.65;;;;;;;20.04;44.43;101040.19;5006761;28;20490;-68
2022/04/14 12:54:16;;;;;;;3.28;1.02;;;;;;;19.43;46.46;101024.88;5007418;28;20139;-68
2022/04/14 12:57:22;;;;;;;7.20;1.98;;;;;;;19.05;45.95;101026.19;5007560;28;20494;-68
2022/04/14 13:00:30;;;;;;;6.15;1.73;;;;;;;18.97;45.21;101045.31;5009969;28;20100;-67
2022/04/14 13:03:47;;;;;;;6.90;1.92;;;;;;;20.07;43.28;101042.59;5030700;28;20052;-67
2022/04/14 13:07:03;;;;;;;5.65;1.80;;;;;;;20.50;43.20;101052.25;5010672;28;20537;-68
2022/04/14 13:10:06;;;;;;;4.85;1.58;;;;;;;20.66;42.35;101044.66;5016191;28;20107;-68
2022/04/14 13:13:30;;;;;;;4.05;1.55;;;;;;;21.36;42.25;101046.47;5029951;28;20125;-68
2022/04/14 13:16:33;;;;;;;5.70;1.65;;;;;;;21.03;40.33;101052.94;5030015;28;20068;-67
2022/04/14 13:19:36;;;;;;;18.38;1.90;;;;;;;20.03;40.68;101049.97;5029916;28;20332;-68
2022/04/14 13:22:41;;;;;;;4.88;2.28;;;;;;;18.85;43.47;101054.22;5029892;28;20136;-67
2022/04/14 13:25:47;;;;;;;5.47;1.90;;;;;;;19.05;43.73;101063.28;5022590;28;20512;-68
2022/04/14 13:28:50;;;;;;;3.53;1.75;;;;;;;19.24;43.53;101071.44;5021943;28;20060;-67
2022/04/14 13:31:54;;;;;;;3.65;2.10;;;;;;;19.39;42.95;101060.56;5031038;28;20412;-67
2022/04/14 13:34:57;;;;;;;3.92;2.38;;;;;;;19.81;42.94;101066.00;5032612;28;20091;-67
2022/04/14 13:38:01;;;;;;;5.00;2.13;;;;;;;19.49;43.77;101069.44;5034647;28;20051;-67
2022/04/14 13:41:05;;;;;;;3.85;1.85;;;;;;;19.48;44.50;101065.97;5035095;28;20056;-67
2022/04/14 13:44:08;;;;;;;3.75;1.90;;;;;;;19.48;43.46;101065.13;5034427;28;20091;-67
2022/04/14 13:47:12;;;;;;;4.78;1.60;;;;;;;19.79;41.85;101054.69;5034569;28;20056;-67
2022/04/14 13:50:15;;;;;;;5.25;1.80;;;;;;;25.25;31.57;101039.63;5034476;28;20404;-67
2022/04/14 13:53:18;;;;;;;5.50;2.17;;;;;;;30.20;24.70;101021.16;5034112;28;20048;-68
2022/04/14 13:56:22;;;;;;;5.70;2.08;;;;;;;27.42;26.79;101032.59;5034603;28;20171;-68
2022/04/14 13:59:26;;;;;;;4.60;1.77;;;;;;;21.29;36.92;101044.47;5033630;28;20545;-68
2022/04/14 14:02:29;;;;;;;3.97;1.90;;;;;;;20.46;39.47;101048.19;5022093;28;20076;-68
2022/04/14 14:05:33;;;;;;;4.38;2.10;;;;;;;19.81;40.91;101044.78;5033979;28;20103;-67
2022/04/14 14:08:36;;;;;;;3.97;2.00;;;;;;;19.73;42.22;101042.78;5034092;28;20052;-68
2022/04/14 14:11:39;;;;;;;7.60;2.42;;;;;;;20.30;41.29;101041.50;5034167;28;20064;-67
2022/04/14 14:14:44;;;;;;;5.00;3.05;;;;;;;21.33;39.89;101036.06;5033847;28;20052;-68
2022/04/14 14:17:47;;;;;;;5.40;3.10;;;;;;;26.43;30.63;101033.97;5033734;28;20048;-68